createdAt,value
2023-05-19T00:00:27.777Z,529.3571
2023-05-19T00:01:35.813Z,527.2143
2023-05-19T00:02:44.112Z,525.5714
2023-05-19T00:03:52.069Z,522.7143
2023-05-19T00:05:00.145Z,524.7143
2023-05-19T00:06:08.276Z,529.7857
2023-05-19T00:07:16.238Z,535.0000
2023-05-19T00:08:24.314Z,546.1429
2023-05-19T00:09:32.389Z,544.7857
2023-05-19T00:10:40.435Z,545.2143
2023-05-19T00:11:48.664Z,544.7857
2023-05-19T00:12:56.565Z,537.0000
2023-05-19T00:14:04.472Z,528.6429
2023-05-19T00:15:12.535Z,529.2857
2023-05-19T00:16:20.648Z,531.2857
2023-05-19T00:17:28.876Z,533.1429
2023-05-19T00:18:36.868Z,530.2143
2023-05-19T00:19:44.913Z,528.7143
2023-05-19T00:20:52.959Z,530.1429
2023-05-19T00:22:01.117Z,532.4286
2023-05-19T00:23:09.238Z,525.1429
2023-05-19T00:24:17.330Z,519.3571
2023-05-19T00:25:25.301Z,515.4286
2023-05-19T00:26:33.358Z,528.8571
2023-05-19T00:27:41.421Z,537.2143
2023-05-19T00:28:49.401Z,536.0000
2023-05-19T00:29:57.470Z,530.2143
2023-05-19T00:31:05.460Z,527.1429
2023-05-19T00:32:13.745Z,525.0000
2023-05-19T00:33:21.759Z,528.0714
2023-05-19T00:34:29.905Z,524.2857
2023-05-19T00:35:37.999Z,526.8571
2023-05-19T00:36:45.922Z,533.5000
2023-05-19T00:37:54.009Z,532.1429
2023-05-19T00:39:02.086Z,527.7143
2023-05-19T00:40:10.197Z,529.0714
2023-05-19T00:41:18.189Z,534.5714
2023-05-19T00:42:26.384Z,529.0000
2023-05-19T00:43:34.205Z,531.5714
2023-05-19T00:44:42.231Z,533.3571
2023-05-19T00:45:50.377Z,531.2857
2023-05-19T00:46:58.570Z,525.7143
2023-05-19T00:48:06.643Z,521.7143
2023-05-19T00:49:14.611Z,531.7143
2023-05-19T00:50:22.722Z,528.4286
2023-05-19T00:51:30.812Z,531.7143
2023-05-19T00:52:38.815Z,526.7143
2023-05-19T00:53:46.898Z,523.1429
2023-05-19T00:54:54.957Z,521.8571
2023-05-19T00:56:03.072Z,522.5714
2023-05-19T00:57:11.210Z,521.0000
2023-05-19T00:58:18.987Z,515.3571
2023-05-19T00:59:27.071Z,518.2143
2023-05-19T01:00:35.372Z,516.7857
2023-05-19T01:01:43.625Z,517.1429
2023-05-19T01:02:51.511Z,519.2857
2023-05-19T01:03:59.653Z,515.2857
2023-05-19T01:05:07.562Z,520.1429
2023-05-19T01:06:15.794Z,522.0714
2023-05-19T01:07:23.631Z,514.1429
2023-05-19T01:08:31.812Z,519.6429
2023-05-19T01:09:39.737Z,522.4286
2023-05-19T01:10:47.820Z,521.1429
2023-05-19T01:11:55.954Z,512.7857
2023-05-19T01:13:03.820Z,510.1429
2023-05-19T01:14:11.962Z,508.0000
2023-05-19T01:15:19.958Z,509.0714
2023-05-19T01:16:28.140Z,501.5000
2023-05-19T01:17:36.370Z,501.9286
2023-05-19T01:18:44.548Z,501.4286
2023-05-19T01:19:52.469Z,504.4286
2023-05-19T01:21:00.396Z,505.0000
2023-05-19T01:22:08.434Z,500.5714
2023-05-19T01:23:16.805Z,497.9286
2023-05-19T01:24:24.710Z,498.7143
2023-05-19T01:25:32.707Z,500.2857
2023-05-19T01:26:40.715Z,501.2143
2023-05-19T01:27:48.597Z,500.2857
2023-05-19T01:28:56.678Z,499.7857
2023-05-19T01:30:04.757Z,500.2143
2023-05-19T01:31:13.072Z,504.5000
2023-05-19T01:32:21.084Z,514.7143
2023-05-19T01:33:29.232Z,519.6429
2023-05-19T01:34:37.198Z,515.3571
2023-05-19T01:35:45.170Z,509.0714
2023-05-19T01:36:53.316Z,510.5000
2023-05-19T01:38:01.493Z,515.5000
2023-05-19T01:39:09.352Z,507.8571
2023-05-19T01:40:17.412Z,501.6429
2023-05-19T01:41:25.622Z,500.4286
2023-05-19T01:42:33.453Z,510.5714
2023-05-19T01:43:41.472Z,509.9286
2023-05-19T01:44:49.547Z,509.5000
2023-05-19T01:45:57.730Z,503.4286
2023-05-19T01:47:05.704Z,506.7857
2023-05-19T01:48:13.937Z,504.6429
2023-05-19T01:49:22.051Z,500.4286
2023-05-19T01:50:30.190Z,504.3571
2023-05-19T01:51:38.068Z,504.0714
2023-05-19T01:52:46.192Z,498.1429
2023-05-19T01:53:54.198Z,505.2857
2023-05-19T01:55:02.217Z,503.4286
2023-05-19T01:56:10.335Z,503.6429
2023-05-19T01:57:18.230Z,512.5000
2023-05-19T01:58:26.298Z,510.8571
2023-05-19T01:59:34.367Z,517.7857
2023-05-19T02:00:42.536Z,513.5000
2023-05-19T02:01:50.564Z,510.5714
2023-05-19T02:02:58.725Z,512.7143
2023-05-19T02:04:06.765Z,508.8571
2023-05-19T02:05:14.975Z,502.2857
2023-05-19T02:06:22.819Z,508.4286
2023-05-19T02:07:30.971Z,508.4286
2023-05-19T02:08:38.992Z,504.0714
2023-05-19T02:09:47.051Z,508.5714
2023-05-19T02:10:55.155Z,510.5714
2023-05-19T02:12:03.070Z,505.9286
2023-05-19T02:13:11.100Z,507.6429
2023-05-19T02:14:19.168Z,502.7857
2023-05-19T02:15:27.371Z,504.3571
2023-05-19T02:16:35.448Z,506.1429
2023-05-19T02:17:43.679Z,500.0000
2023-05-19T02:18:51.622Z,506.1429
2023-05-19T02:19:59.619Z,505.2857
2023-05-19T02:21:07.881Z,506.4286
2023-05-19T02:22:15.802Z,506.5714
2023-05-19T02:23:23.813Z,502.7857
2023-05-19T02:24:31.881Z,497.6429
2023-05-19T02:25:39.943Z,498.2143
2023-05-19T02:26:47.859Z,500.9286
2023-05-19T02:27:55.980Z,491.8571
2023-05-19T02:29:04.011Z,490.8571
2023-05-19T02:30:12.459Z,489.7857
2023-05-19T02:31:20.304Z,490.5000
2023-05-19T02:32:28.351Z,490.6429
2023-05-19T02:33:36.459Z,487.6429
2023-05-19T02:34:44.465Z,490.5714
2023-05-19T02:35:52.523Z,486.7857
2023-05-19T02:37:00.728Z,485.7857
2023-05-19T02:38:08.641Z,483.2143
2023-05-19T02:39:16.732Z,487.5714
2023-05-19T02:40:24.729Z,484.5714
2023-05-19T02:41:32.693Z,487.5000
2023-05-19T02:42:40.756Z,485.2143
2023-05-19T02:43:48.807Z,489.7143
2023-05-19T02:44:57.090Z,491.7143
2023-05-19T02:46:05.118Z,482.7857
2023-05-19T02:47:13.119Z,487.7857
2023-05-19T02:48:21.077Z,488.6429
2023-05-19T02:49:29.259Z,487.2857
2023-05-19T02:50:37.343Z,485.5714
2023-05-19T02:51:45.527Z,484.3571
2023-05-19T02:52:53.498Z,488.6429
2023-05-19T02:54:01.630Z,488.5714
2023-05-19T02:55:09.559Z,489.7857
2023-05-19T02:56:17.688Z,488.5714
2023-05-19T02:57:25.572Z,486.6429
2023-05-19T02:58:33.650Z,489.9286
2023-05-19T02:59:42.102Z,494.3571
2023-05-19T03:00:49.881Z,491.3571
2023-05-19T03:01:58.015Z,483.5000
2023-05-19T03:03:06.096Z,478.0000
2023-05-19T03:04:14.082Z,474.7857
2023-05-19T03:05:22.132Z,481.8571
2023-05-19T03:06:30.212Z,490.9286
2023-05-19T03:07:38.349Z,490.5714
2023-05-19T03:08:46.306Z,481.1429
2023-05-19T03:09:54.383Z,479.2143
2023-05-19T03:11:02.328Z,476.7857
2023-05-19T03:12:10.395Z,480.8571
2023-05-19T03:13:18.446Z,477.8571
2023-05-19T03:14:26.611Z,479.5000
2023-05-19T03:15:34.695Z,481.4286
2023-05-19T03:16:42.784Z,482.5000
2023-05-19T03:17:50.933Z,476.1429
2023-05-19T03:18:58.984Z,481.4286
2023-05-19T03:20:06.931Z,480.1429
2023-05-19T03:21:14.847Z,484.3571
2023-05-19T03:22:23.010Z,486.0714
2023-05-19T03:23:31.099Z,480.5000
2023-05-19T03:24:39.201Z,474.0714
2023-05-19T03:25:47.068Z,477.9286
2023-05-19T03:26:55.160Z,478.2143
2023-05-19T03:28:03.173Z,480.1429
2023-05-19T03:29:11.476Z,475.7857
2023-05-19T03:30:19.461Z,477.8571
2023-05-19T03:31:27.504Z,474.0714
2023-05-19T03:32:35.604Z,472.1429
2023-05-19T03:33:43.853Z,473.5000
2023-05-19T03:34:51.800Z,474.8571
2023-05-19T03:35:59.786Z,478.2857
2023-05-19T03:37:07.860Z,478.9286
2023-05-19T03:38:15.871Z,472.9286
2023-05-19T03:39:23.914Z,474.1429
2023-05-19T03:40:32.136Z,470.9286
2023-05-19T03:41:39.934Z,471.4286
2023-05-19T03:42:47.963Z,475.2857
2023-05-19T03:43:56.190Z,473.5000
2023-05-19T03:45:04.226Z,474.4286
2023-05-19T03:46:12.334Z,470.0000
2023-05-19T03:47:20.452Z,465.2143
2023-05-19T03:48:28.390Z,469.8571
2023-05-19T03:49:36.442Z,477.2143
2023-05-19T03:50:44.837Z,478.4286
2023-05-19T03:51:52.637Z,483.2857
2023-05-19T03:53:00.679Z,483.5000
2023-05-19T03:54:08.672Z,477.3571
2023-05-19T03:55:16.634Z,483.7857
2023-05-19T03:56:24.678Z,481.2143
2023-05-19T03:57:32.774Z,478.2857
2023-05-19T03:58:40.969Z,476.2857
2023-05-19T03:59:49.011Z,480.1429
2023-05-19T04:00:57.054Z,478.5714
2023-05-19T04:02:05.586Z,485.2857
2023-05-19T04:03:13.265Z,488.7143
2023-05-19T04:04:21.274Z,486.2857
2023-05-19T04:05:29.301Z,490.8571
2023-05-19T04:06:37.331Z,481.6429
2023-05-19T04:07:45.623Z,476.5000
2023-05-19T04:08:53.501Z,479.9286
2023-05-19T04:10:01.423Z,478.2143
2023-05-19T04:11:09.468Z,481.1429
2023-05-19T04:12:17.552Z,480.1429
2023-05-19T04:13:25.943Z,477.3571
2023-05-19T04:14:33.829Z,475.3571
2023-05-19T04:15:41.918Z,476.9286
2023-05-19T04:16:49.905Z,476.6429
2023-05-19T04:17:58.015Z,482.3571
2023-05-19T04:19:06.149Z,480.6429
2023-05-19T04:20:14.223Z,476.1429
2023-05-19T04:21:22.153Z,473.5000
2023-05-19T04:22:30.205Z,477.2857
2023-05-19T04:23:38.477Z,486.0714
2023-05-19T04:24:46.253Z,482.9286
2023-05-19T04:25:54.330Z,485.2857
2023-05-19T04:27:02.374Z,486.8571
2023-05-19T04:28:10.527Z,485.7857
2023-05-19T04:29:18.791Z,489.5714
2023-05-19T04:30:26.767Z,493.2143
2023-05-19T04:31:34.999Z,490.2857
2023-05-19T04:32:42.845Z,495.1429
2023-05-19T04:33:50.924Z,497.6429
2023-05-19T04:34:58.961Z,504.5714
2023-05-19T04:36:07.003Z,511.2143
2023-05-19T04:37:15.146Z,521.0714
2023-05-19T04:38:23.157Z,526.4286
2023-05-19T04:39:31.070Z,529.1429
2023-05-19T04:40:39.158Z,538.1429
2023-05-19T04:41:47.242Z,536.8571
2023-05-19T04:42:55.411Z,542.6429
2023-05-19T04:44:03.457Z,541.8571
2023-05-19T04:45:11.565Z,540.7143
2023-05-19T04:46:19.600Z,539.7143
2023-05-19T04:47:27.895Z,533.5000
2023-05-19T04:48:35.745Z,533.1429
2023-05-19T04:49:43.832Z,533.3571
2023-05-19T04:50:51.965Z,538.3571
2023-05-19T04:51:59.926Z,546.2857
2023-05-19T04:53:08.037Z,544.0000
2023-05-19T04:54:15.902Z,545.0000
2023-05-19T04:55:23.966Z,538.4286
2023-05-19T04:56:32.024Z,543.1429
2023-05-19T04:57:40.245Z,539.7857
2023-05-19T04:58:48.317Z,542.0714
2023-05-19T04:59:56.578Z,542.2143
2023-05-19T05:01:04.380Z,546.2857
2023-05-19T05:02:12.607Z,549.6429
2023-05-19T05:03:20.695Z,546.7143
2023-05-19T05:04:28.617Z,545.3571
2023-05-19T05:05:36.769Z,553.6429
2023-05-19T05:06:44.689Z,559.2857
2023-05-19T05:07:52.811Z,556.9286
2023-05-19T05:09:00.699Z,555.0714
2023-05-19T05:10:08.780Z,551.9286
2023-05-19T05:11:16.815Z,557.1429
2023-05-19T05:12:25.000Z,560.0000
2023-05-19T05:13:33.082Z,569.5714
2023-05-19T05:14:41.145Z,568.0714
2023-05-19T05:15:49.210Z,564.7143
2023-05-19T05:16:57.385Z,563.8571
2023-05-19T05:18:05.381Z,567.7143
2023-05-19T05:19:13.595Z,570.2857
2023-05-19T05:20:21.528Z,569.0714
2023-05-19T05:21:29.503Z,574.4286
2023-05-19T05:22:37.555Z,563.2143
2023-05-19T05:23:45.519Z,561.0714
2023-05-19T05:24:53.554Z,558.7857
2023-05-19T05:26:01.614Z,564.7857
2023-05-19T05:27:10.095Z,565.2143
2023-05-19T05:28:17.929Z,565.9286
2023-05-19T05:29:25.986Z,566.5000
2023-05-19T05:30:33.957Z,562.5714
2023-05-19T05:31:42.094Z,559.9286
2023-05-19T05:32:50.211Z,556.5000
2023-05-19T05:33:58.217Z,556.0000
2023-05-19T05:35:06.240Z,553.5000
2023-05-19T05:36:14.434Z,558.5000
2023-05-19T05:37:22.371Z,562.2857
2023-05-19T05:38:30.304Z,555.2857
2023-05-19T05:39:38.365Z,558.0714
2023-05-19T05:40:46.395Z,562.0000
2023-05-19T05:41:54.616Z,560.2857
2023-05-19T05:43:02.641Z,565.4286
2023-05-19T05:44:10.700Z,557.5000
2023-05-19T05:45:18.816Z,558.2857
2023-05-19T05:46:27.076Z,549.2143
2023-05-19T05:47:34.913Z,546.9286
2023-05-19T05:48:43.035Z,552.4286
2023-05-19T05:49:52.995Z,554.5000
2023-05-19T05:51:03.929Z,550.8000
2023-05-19T05:52:11.836Z,550.5714
2023-05-19T05:53:19.940Z,552.9286
2023-05-19T05:54:28.014Z,542.5714
2023-05-19T05:55:36.185Z,546.8571
2023-05-19T05:56:44.239Z,547.0000
2023-05-19T05:57:52.305Z,549.8571
2023-05-19T05:59:00.414Z,547.9286
2023-05-19T06:00:08.574Z,536.6429
2023-05-19T06:01:16.506Z,542.2143
2023-05-19T06:02:24.579Z,542.2143
2023-05-19T06:03:32.708Z,543.5714
2023-05-19T06:04:40.769Z,546.5714
2023-05-19T06:05:48.777Z,541.1429
2023-05-19T06:06:56.638Z,536.5000
2023-05-19T06:08:04.780Z,542.1429
2023-05-19T06:09:12.820Z,544.9286
2023-05-19T06:10:20.942Z,544.9286
2023-05-19T06:11:29.040Z,548.7857
2023-05-19T06:12:37.100Z,540.5000
2023-05-19T06:13:45.337Z,546.4286
2023-05-19T06:14:53.197Z,550.5714
2023-05-19T06:16:02.244Z,553.6429
2023-05-19T06:17:09.329Z,543.6429
2023-05-19T06:18:17.448Z,536.4286
2023-05-19T06:19:25.640Z,528.4286
2023-05-19T06:20:33.567Z,526.6429
2023-05-19T06:21:41.415Z,522.0000
2023-05-19T06:22:49.511Z,516.1429
2023-05-19T06:23:57.730Z,517.9286
2023-05-19T06:25:05.921Z,513.1429
2023-05-19T06:26:13.803Z,518.7857
2023-05-19T06:27:21.831Z,514.4286
2023-05-19T06:28:29.967Z,512.0714
2023-05-19T06:29:38.079Z,522.7857
2023-05-19T06:30:46.052Z,525.5714
2023-05-19T06:31:54.250Z,523.4286
2023-05-19T06:33:02.177Z,519.4286
2023-05-19T06:34:10.251Z,517.9286
2023-05-19T06:35:18.193Z,522.0000
2023-05-19T06:36:26.225Z,524.5000
2023-05-19T06:37:34.301Z,526.5714
2023-05-19T06:38:42.467Z,531.5714
2023-05-19T06:39:50.505Z,520.9286
2023-05-19T06:40:58.830Z,519.8571
2023-05-19T06:42:06.671Z,518.0714
2023-05-19T06:43:14.705Z,523.5000
2023-05-19T06:44:22.752Z,519.5000
2023-05-19T06:45:30.790Z,516.0000
2023-05-19T06:46:39.204Z,524.0000
2023-05-19T06:47:46.982Z,522.1429
2023-05-19T06:48:55.170Z,523.2857
2023-05-19T06:50:02.969Z,510.7143
2023-05-19T06:51:11.027Z,516.6429
2023-05-19T06:52:19.104Z,515.5000
2023-05-19T06:53:27.276Z,518.2857
2023-05-19T06:54:35.344Z,513.1429
2023-05-19T06:55:57.540Z,516.4286
2023-05-19T06:56:56.528Z,515.8000
2023-05-19T06:58:04.394Z,512.7857
2023-05-19T06:59:12.448Z,512.1429
2023-05-19T07:00:22.894Z,519.0714
2023-05-19T07:01:33.643Z,520.1334
2023-05-19T07:02:41.660Z,525.8571
2023-05-19T07:03:49.488Z,528.5000
2023-05-19T07:04:57.486Z,518.3571
2023-05-19T07:06:07.931Z,520.4286
2023-05-19T07:07:18.544Z,519.4000
2023-05-19T07:08:26.679Z,523.1429
2023-05-19T07:09:34.932Z,534.9286
2023-05-19T07:10:42.819Z,534.5714
2023-05-19T07:11:50.851Z,536.8571
2023-05-19T07:12:59.040Z,532.3571
2023-05-19T07:14:06.900Z,532.2857
2023-05-19T07:15:14.927Z,533.5714
2023-05-19T07:16:23.037Z,534.6429
2023-05-19T07:17:31.040Z,543.0714
2023-05-19T07:18:39.145Z,544.5714
2023-05-19T07:19:47.221Z,558.2143
2023-05-19T07:20:55.214Z,551.3571
2023-05-19T07:22:03.470Z,542.8571
2023-05-19T07:23:11.477Z,546.5000
2023-05-19T07:24:19.469Z,546.1429
2023-05-19T07:25:27.552Z,549.3571
2023-05-19T07:26:35.642Z,555.5000
2023-05-19T07:27:43.768Z,562.0714
2023-05-19T07:28:51.712Z,569.5714
2023-05-19T07:29:59.812Z,574.9286
2023-05-19T07:31:07.753Z,576.9286
2023-05-19T07:32:15.876Z,591.8571
2023-05-19T07:33:23.925Z,589.2143
2023-05-19T07:34:32.074Z,593.7143
2023-05-19T07:35:40.147Z,596.0714
2023-05-19T07:36:48.182Z,594.7857
2023-05-19T07:37:56.352Z,615.9286
2023-05-19T07:39:04.344Z,611.5714
2023-05-19T07:40:12.372Z,609.1429
2023-05-19T07:41:20.387Z,601.2857
2023-05-19T07:42:28.545Z,598.9286
2023-05-19T07:43:36.598Z,589.7143
2023-05-19T07:44:44.809Z,594.7857
2023-05-19T07:45:52.776Z,601.9286
2023-05-19T07:47:00.687Z,600.3571
2023-05-19T07:48:08.987Z,607.0714
2023-05-19T07:49:16.726Z,599.9286
2023-05-19T07:50:24.792Z,606.9286
2023-05-19T07:51:32.868Z,603.7143
2023-05-19T07:52:41.151Z,613.2857
2023-05-19T07:53:49.154Z,625.6429
2023-05-19T07:54:57.144Z,636.8571
2023-05-19T07:56:05.391Z,639.3571
2023-05-19T07:57:13.376Z,640.2857
2023-05-19T07:58:21.337Z,649.0000
2023-05-19T07:59:29.386Z,647.5000
2023-05-19T08:00:37.540Z,646.7857
2023-05-19T08:01:45.519Z,647.5714
2023-05-19T08:02:53.674Z,643.8571
2023-05-19T08:04:01.580Z,655.3571
2023-05-19T08:05:09.573Z,663.0714
2023-05-19T08:06:17.674Z,661.7857
2023-05-19T08:07:26.023Z,659.2143
2023-05-19T08:08:34.084Z,655.2143
2023-05-19T08:09:41.946Z,655.9286
2023-05-19T08:10:50.058Z,656.8571
2023-05-19T08:11:58.193Z,650.4286
2023-05-19T08:13:06.102Z,643.2143
2023-05-19T08:14:14.173Z,635.5000
2023-05-19T08:15:22.308Z,634.4286
2023-05-19T08:16:30.635Z,628.8571
2023-05-19T08:17:38.319Z,614.2857
2023-05-19T08:18:46.387Z,621.5000
2023-05-19T08:19:54.332Z,621.2857
2023-05-19T08:21:02.541Z,628.4286
2023-05-19T08:22:10.615Z,624.3571
2023-05-19T08:23:18.685Z,625.2143
2023-05-19T08:24:26.792Z,625.3571
2023-05-19T08:25:34.812Z,624.2857
2023-05-19T08:26:42.879Z,618.8571
2023-05-19T08:27:51.089Z,616.5714
2023-05-19T08:28:59.029Z,613.7143
2023-05-19T08:30:07.024Z,616.9286
2023-05-19T08:31:15.247Z,616.5000
2023-05-19T08:32:23.099Z,609.2857
2023-05-19T08:33:31.083Z,610.4286
2023-05-19T08:34:39.139Z,609.5714
2023-05-19T08:35:47.489Z,621.6429
2023-05-19T08:36:55.546Z,618.6429
2023-05-19T08:38:03.453Z,610.7143
2023-05-19T08:39:11.591Z,615.8571
2023-05-19T08:40:19.656Z,609.1429
2023-05-19T08:41:27.820Z,607.4286
2023-05-19T08:42:35.767Z,606.5714
2023-05-19T08:43:43.831Z,605.0000
2023-05-19T08:44:52.187Z,609.8571
2023-05-19T08:45:59.896Z,623.4286
2023-05-19T08:47:08.021Z,628.5714
2023-05-19T08:48:16.003Z,628.9286
2023-05-19T08:49:25.570Z,631.0714
2023-05-19T08:50:32.506Z,632.6429
2023-05-19T08:51:40.155Z,630.0000
2023-05-19T08:52:51.796Z,633.8571
2023-05-19T08:54:01.288Z,639.6667
2023-05-19T08:55:09.340Z,654.0000
2023-05-19T08:56:17.331Z,663.5000
2023-05-19T08:57:25.475Z,669.2857
2023-05-19T08:58:33.515Z,668.2143
2023-05-19T08:59:41.402Z,665.2143
2023-05-19T09:00:49.517Z,668.6429
2023-05-19T09:01:57.578Z,676.3571
2023-05-19T09:04:13.911Z,670.7857
2023-05-19T09:05:21.914Z,670.5000
2023-05-19T09:06:29.921Z,664.2857
2023-05-19T09:07:38.072Z,675.0714
2023-05-19T09:08:45.998Z,680.2857
2023-05-19T09:09:54.349Z,669.8571
2023-05-19T09:11:02.171Z,669.0714
2023-05-19T09:12:10.291Z,658.8571
2023-05-19T09:13:18.255Z,658.5000
2023-05-19T09:14:26.216Z,658.7143
2023-05-19T09:15:34.602Z,666.2143
2023-05-19T09:16:42.389Z,664.9286
2023-05-19T09:17:50.640Z,670.8571
2023-05-19T09:18:58.621Z,667.4286
2023-05-19T09:20:06.680Z,649.9286
2023-05-19T09:21:14.716Z,644.2857
2023-05-19T09:22:22.836Z,642.6429
2023-05-19T09:23:30.819Z,644.3571
2023-05-19T09:24:38.863Z,650.4286
2023-05-19T09:25:46.981Z,646.9286
2023-05-19T09:26:55.756Z,651.0714
2023-05-19T09:28:07.868Z,649.0667
2023-05-19T09:29:15.853Z,647.5714
2023-05-19T09:30:23.885Z,646.2143
2023-05-19T09:31:32.161Z,649.2857
2023-05-19T09:32:40.165Z,644.1429
2023-05-19T09:33:48.281Z,651.0714
2023-05-19T09:34:56.529Z,648.0000
2023-05-19T09:36:04.320Z,651.2143
2023-05-19T09:37:12.370Z,650.6429
2023-05-19T09:38:20.564Z,658.8571
2023-05-19T09:39:28.553Z,661.2857
2023-05-19T09:40:36.607Z,664.0000
2023-05-19T09:41:44.667Z,667.9286
2023-05-19T09:42:52.572Z,668.2143
2023-05-19T09:44:00.678Z,665.7857
2023-05-19T09:45:08.678Z,668.4286
2023-05-19T09:46:16.885Z,677.5714
2023-05-19T09:47:24.903Z,666.9286
2023-05-19T09:48:32.991Z,674.4286
2023-05-19T09:49:41.279Z,667.5000
2023-05-19T09:50:49.260Z,671.7857
2023-05-19T09:51:57.195Z,672.5000
2023-05-19T09:53:05.261Z,666.5000
2023-05-19T09:54:13.385Z,667.7857
2023-05-19T09:55:21.358Z,683.0000
2023-05-19T09:56:29.442Z,684.3571
2023-05-19T09:57:37.358Z,678.0714
2023-05-19T09:58:45.414Z,683.0000
2023-05-19T09:59:53.487Z,691.7857
2023-05-19T10:01:01.631Z,695.2143
2023-05-19T10:02:09.760Z,694.7857
2023-05-19T10:03:17.828Z,687.0714
2023-05-19T10:04:25.922Z,683.2857
2023-05-19T10:05:34.320Z,682.7143
2023-05-19T10:06:42.296Z,677.9286
2023-05-19T10:07:50.044Z,685.3571
2023-05-19T10:08:58.157Z,688.8571
2023-05-19T10:10:06.175Z,696.5000
2023-05-19T10:11:14.209Z,701.0000
2023-05-19T10:12:22.159Z,720.1429
2023-05-19T10:13:30.232Z,713.5714
2023-05-19T10:14:38.275Z,712.3571
2023-05-19T10:15:57.327Z,712.4286
2023-05-19T10:16:59.481Z,714.2667
2023-05-19T10:18:07.545Z,720.9286
2023-05-19T10:19:15.548Z,720.5000
2023-05-19T10:20:23.573Z,724.5714
2023-05-19T10:21:31.667Z,716.6429
2023-05-19T10:22:39.753Z,705.4286
2023-05-19T10:23:47.895Z,697.6429
2023-05-19T10:24:55.820Z,700.3571
2023-05-19T10:26:03.754Z,699.8571
2023-05-19T10:27:11.834Z,704.8571
2023-05-19T10:28:19.921Z,709.7143
2023-05-19T10:29:28.129Z,711.8571
2023-05-19T10:30:36.110Z,720.2857
2023-05-19T10:31:44.338Z,713.2857
2023-05-19T10:32:52.308Z,717.6429
2023-05-19T10:34:00.398Z,712.7857
2023-05-19T10:35:08.460Z,717.7143
2023-05-19T10:36:16.535Z,717.9286
2023-05-19T10:37:24.538Z,723.0714
2023-05-19T10:38:32.543Z,721.5714
2023-05-19T10:39:40.657Z,726.0714
2023-05-19T10:40:48.543Z,726.0000
2023-05-19T10:41:56.629Z,721.3571
2023-05-19T10:43:04.672Z,717.7857
2023-05-19T10:44:12.916Z,711.0714
2023-05-19T10:45:21.127Z,720.8571
2023-05-19T10:46:28.959Z,724.8571
2023-05-19T10:47:37.046Z,715.7143
2023-05-19T10:48:45.125Z,711.7857
2023-05-19T10:49:53.344Z,706.6429
2023-05-19T10:51:01.272Z,706.0000
2023-05-19T10:52:09.369Z,708.3571
2023-05-19T10:53:17.349Z,718.7857
2023-05-19T10:54:25.689Z,712.1429
2023-05-19T10:55:33.525Z,717.5714
2023-05-19T10:56:41.443Z,721.0000
2023-05-19T10:57:49.510Z,716.0714
2023-05-19T10:58:57.644Z,721.6429
2023-05-19T11:00:05.692Z,722.2143
2023-05-19T11:01:13.837Z,723.7857
2023-05-19T11:02:21.807Z,726.8571
2023-05-19T11:04:37.913Z,734.0000
2023-05-19T11:05:46.011Z,746.3571
2023-05-19T11:06:54.117Z,748.5714
2023-05-19T11:08:02.201Z,757.2857
2023-05-19T11:09:10.160Z,750.3571
2023-05-19T11:10:18.133Z,753.7857
2023-05-19T11:11:26.202Z,752.5000
2023-05-19T11:12:34.210Z,764.6429
2023-05-19T11:13:42.405Z,762.0714
2023-05-19T11:14:50.451Z,754.0000
2023-05-19T11:15:58.562Z,753.2143
2023-05-19T11:17:06.728Z,748.0000
2023-05-19T11:18:14.703Z,747.8571
2023-05-19T11:19:22.886Z,753.7857
2023-05-19T11:20:30.794Z,742.2857
2023-05-19T11:21:38.962Z,738.0000
2023-05-19T11:22:46.892Z,741.8571
2023-05-19T11:23:55.121Z,755.0000
2023-05-19T11:25:02.865Z,756.9286
2023-05-19T11:26:10.961Z,759.8571
2023-05-19T11:27:19.109Z,749.1429
2023-05-19T11:28:27.277Z,745.7143
2023-05-19T11:29:35.245Z,741.2857
2023-05-19T11:30:43.347Z,730.9286
2023-05-19T11:31:51.555Z,726.8571
2023-05-19T11:32:59.442Z,730.2143
2023-05-19T11:34:07.503Z,737.8571
2023-05-19T11:35:15.668Z,730.4286
2023-05-19T11:36:23.630Z,703.7857
2023-05-19T11:37:31.675Z,703.2143
2023-05-19T11:38:39.690Z,704.0714
2023-05-19T11:39:47.689Z,710.1429
2023-05-19T11:40:55.749Z,709.7143
2023-05-19T11:42:03.824Z,713.8571
2023-05-19T11:43:11.915Z,720.0000
2023-05-19T11:44:20.007Z,734.7857
2023-05-19T11:45:28.079Z,747.6429
2023-05-19T11:46:36.472Z,746.1429
2023-05-19T11:48:00.827Z,756.5714
2023-05-19T11:48:57.393Z,769.5333
2023-05-19T11:50:05.215Z,780.2143
2023-05-19T11:51:13.335Z,797.5000
2023-05-19T11:52:21.383Z,804.0000
2023-05-19T11:53:29.246Z,815.3571
2023-05-19T11:54:37.332Z,819.1429
2023-05-19T11:55:45.803Z,825.6429
2023-05-19T11:56:53.713Z,829.4286
2023-05-19T11:58:04.649Z,836.8571
2023-05-19T11:59:14.546Z,842.4000
2023-05-19T12:00:22.573Z,851.1429
2023-05-19T12:01:30.637Z,861.5714
2023-05-19T12:02:38.864Z,879.7143
2023-05-19T12:03:46.922Z,881.2857
2023-05-19T12:04:54.963Z,883.8571
2023-05-19T12:06:02.961Z,868.5000
2023-05-19T12:07:10.847Z,874.6429
2023-05-19T12:08:18.997Z,875.5000
2023-05-19T12:09:27.030Z,878.1429
2023-05-19T12:10:35.133Z,869.7857
2023-05-19T12:11:43.207Z,873.0714
2023-05-19T12:12:51.226Z,870.6429
2023-05-19T12:13:59.325Z,861.0714
2023-05-19T12:15:07.347Z,855.5714
2023-05-19T12:16:15.522Z,861.0714
2023-05-19T12:17:23.602Z,856.4286
2023-05-19T12:18:31.520Z,858.0000
2023-05-19T12:19:39.593Z,852.0000
2023-05-19T12:20:47.776Z,836.0000
2023-05-19T12:21:55.675Z,844.2857
2023-05-19T12:23:03.850Z,842.3571
2023-05-19T12:24:11.812Z,850.5714
2023-05-19T12:25:19.857Z,850.9286
2023-05-19T12:26:28.049Z,858.9286
2023-05-19T12:27:35.971Z,856.2143
2023-05-19T12:28:44.156Z,857.9286
2023-05-19T12:29:52.170Z,853.0714
2023-05-19T12:31:00.332Z,866.7143
2023-05-19T12:32:08.425Z,876.7143
2023-05-19T12:33:16.468Z,887.5000
2023-05-19T12:34:24.417Z,903.9286
2023-05-19T12:35:32.488Z,903.1429
2023-05-19T12:36:40.494Z,908.9286
2023-05-19T12:37:48.524Z,911.2143
2023-05-19T12:38:56.560Z,910.2857
2023-05-19T12:40:04.845Z,902.8571
2023-05-19T12:41:13.023Z,886.2857
2023-05-19T12:42:20.831Z,894.2857
2023-05-19T12:43:28.962Z,878.2857
2023-05-19T12:44:36.963Z,860.0000
2023-05-19T12:45:45.129Z,838.8571
2023-05-19T12:46:53.235Z,837.6429
2023-05-19T12:48:01.372Z,835.6429
2023-05-19T12:49:09.313Z,823.2857
2023-05-19T12:50:17.390Z,803.0714
2023-05-19T12:51:25.367Z,793.0000
2023-05-19T12:52:33.385Z,795.0000
2023-05-19T12:53:41.436Z,790.4286
2023-05-19T12:54:49.629Z,788.0000
2023-05-19T12:55:57.746Z,782.1429
2023-05-19T12:57:05.913Z,768.8571
2023-05-19T12:58:13.874Z,758.0714
2023-05-19T12:59:37.093Z,740.2143
2023-05-19T13:00:34.987Z,744.6667
2023-05-19T13:01:42.912Z,751.7857
2023-05-19T13:02:51.110Z,752.7143
2023-05-19T13:03:59.206Z,734.0000
2023-05-19T13:05:06.920Z,737.0714
2023-05-19T13:06:14.991Z,744.8571
2023-05-19T13:07:23.042Z,746.7857
2023-05-19T13:08:31.469Z,765.1429
2023-05-19T13:09:39.274Z,783.4286
2023-05-19T13:10:47.589Z,790.6429
2023-05-19T13:11:55.450Z,798.7857
2023-05-19T13:13:03.552Z,795.7857
2023-05-19T13:14:11.515Z,798.0000
2023-05-19T13:15:19.595Z,804.2857
2023-05-19T13:16:27.671Z,795.9286
2023-05-19T13:17:35.768Z,797.2857
2023-05-19T13:18:43.816Z,791.5000
2023-05-19T13:19:51.824Z,791.7143
2023-05-19T13:20:59.819Z,783.8571
2023-05-19T13:22:07.951Z,766.8571